Time;durP1;ratioP1;P1;durP2;ratioP2;P2;SDS_P1;SDS_P2;PMS_P1;PMS_P2;Temp;Humidity;BMP_temperature;BMP_pressure;BME280_temperature;BME280_humidity;BME280_pressure;Samples;Min_cycle;Max_cycle;Signal;HPM_P1;HPM_P2
2021/01/26 00:01:29;;;;;;;4.45;2.00;;;;;;;10.13;53.13;97879.94;4842569;29;20173;-82
2021/01/26 00:03:54;;;;;;;4.70;1.40;;;;;;;10.15;53.20;97871.59;4842835;29;20034;-82
2021/01/26 00:06:20;;;;;;;7.53;4.30;;;;;;;10.14;53.23;97878.03;4842385;29;20029;-83
2021/01/26 00:08:46;;;;;;;8.05;2.45;;;;;;;10.15;53.67;97877.72;4842223;29;20476;-88
2021/01/26 00:11:12;;;;;;;3.63;1.92;;;;;;;10.17;53.53;97882.78;4842506;29;20073;-80
2021/01/26 00:13:38;;;;;;;2.65;1.83;;;;;;;10.17;53.66;97885.47;4842448;29;20038;-86
2021/01/26 00:16:04;;;;;;;5.20;3.03;;;;;;;10.17;53.14;97885.47;4842193;29;20036;-81
2021/01/26 00:18:29;;;;;;;3.83;1.90;;;;;;;10.19;53.54;97891.25;4842424;29;20029;-80
2021/01/26 00:20:55;;;;;;;25.48;8.73;;;;;;;10.20;53.49;97893.63;4839107;29;20046;-81
2021/01/26 00:23:20;;;;;;;7.10;2.45;;;;;;;10.20;53.31;97890.19;4839692;29;20392;-83
2021/01/26 00:25:46;;;;;;;7.93;2.75;;;;;;;10.22;53.38;97888.00;4842562;29;20029;-82
2021/01/26 00:28:13;;;;;;;7.97;3.45;;;;;;;10.25;53.00;97887.38;4841173;29;20033;-88
2021/01/26 00:30:41;;;;;;;4.03;1.08;;;;;;;10.27;52.86;97895.91;4858968;29;20026;-87
2021/01/26 00:33:13;;;;;;;2.25;0.82;;;;;;;10.28;52.82;97891.34;4842182;29;20074;-86
2021/01/26 00:35:39;;;;;;;2.75;1.10;;;;;;;10.28;52.70;97865.41;4840981;29;20055;-90
2021/01/26 00:38:05;;;;;;;3.15;0.90;;;;;;;10.25;52.37;97866.81;4840682;29;20026;-89
2021/01/26 00:41:14;;;;;;;2.75;1.25;;;;;;;10.24;53.07;97857.22;4826862;29;20491;-90
2021/01/26 00:47:48;;;;;;;7.20;2.00;;;;;;;10.21;53.10;97878.41;4858100;29;20113;-90
2021/01/26 01:00:38;;;;;;;1.27;0.98;;;;;;;10.07;53.68;97895.25;4843090;29;20052;-89
2021/01/26 01:03:40;;;;;;;2.35;0.90;;;;;;;10.07;52.46;97865.88;4820597;29;20117;-90
2021/01/26 01:06:30;;;;;;;2.08;1.30;;;;;;;10.10;52.82;97859.91;4823623;29;20086;-96
2021/01/26 01:08:56;;;;;;;4.43;1.25;;;;;;;10.18;52.71;97868.31;4808423;29;20137;-93
2021/01/26 01:11:21;;;;;;;3.55;1.20;;;;;;;10.20;52.58;97858.13;4808968;29;20460;-89
2021/01/26 01:13:47;;;;;;;3.53;1.70;;;;;;;10.23;52.65;97852.19;4819797;29;20037;-88
2021/01/26 01:16:13;;;;;;;5.32;2.67;;;;;;;10.22;53.21;97854.06;4833280;29;20390;-86
2021/01/26 01:19:11;;;;;;;2.45;2.00;;;;;;;10.21;53.39;97843.66;4822405;29;20065;-92
2021/01/26 01:21:59;;;;;;;;;;;;;;;10.16;52.90;97839.22;4839948;29;20078;-91
2021/01/26 01:24:34;;;;;;;8.80;3.90;;;;;;;10.12;52.88;97832.13;4808787;29;19912;-89
2021/01/26 01:27:31;;;;;;;10.43;2.47;;;;;;;10.08;52.56;97830.06;4823714;29;20030;-91
2021/01/26 01:33:24;;;;;;;9.35;3.65;;;;;;;10.00;53.14;97822.00;4840015;29;20412;-93
2021/01/26 01:35:50;;;;;;;;;;;;;;;10.01;52.84;97815.53;4826611;29;20036;-94
2021/01/26 01:38:38;;;;;;;5.53;1.95;;;;;;;9.97;52.90;97807.34;4825296;29;19912;-94
2021/01/26 01:41:36;;;;;;;4.00;1.42;;;;;;;9.95;52.74;97801.53;4823003;29;20624;-91
2021/01/26 01:44:04;;;;;;;9.07;2.72;;;;;;;9.90;52.80;97791.75;4837942;29;20030;-89
2021/01/26 01:46:42;;;;;;;6.20;2.83;;;;;;;9.89;52.44;97794.72;4819808;29;20481;-80
2021/01/26 01:49:14;;;;;;;5.70;2.65;;;;;;;9.86;51.96;97785.44;4820145;29;20291;-81
2021/01/26 01:51:43;;;;;;;6.40;3.20;;;;;;;9.84;52.01;97792.16;4828733;29;20531;-81
2021/01/26 01:54:15;;;;;;;4.95;2.22;;;;;;;9.83;50.86;97777.25;4824143;29;20033;-80
2021/01/26 02:00:46;;;;;;;8.15;2.72;;;;;;;9.85;50.80;97764.34;4857736;29;20068;-84
2021/01/26 02:03:19;;;;;;;3.63;1.80;;;;;;;9.86;50.57;97758.72;4850283;29;20060;-79
2021/01/26 02:05:46;;;;;;;2.88;1.35;;;;;;;9.87;50.56;97762.19;4841665;29;20399;-79
2021/01/26 02:08:20;;;;;;;4.43;1.65;;;;;;;9.84;50.32;97758.25;4834780;29;20463;-79
2021/01/26 02:10:47;;;;;;;5.45;1.75;;;;;;;9.86;50.16;97745.38;4844268;29;20022;-82
2021/01/26 02:13:13;;;;;;;4.90;2.00;;;;;;;9.87;50.08;97751.50;4826099;29;20503;-79
2021/01/26 02:15:39;;;;;;;4.03;2.38;;;;;;;9.87;50.52;97744.25;4838489;29;20029;-79
2021/01/26 02:18:24;;;;;;;4.32;1.45;;;;;;;9.87;49.96;97743.50;4844576;29;20033;-78
2021/01/26 02:21:12;;;;;;;6.20;1.70;;;;;;;9.88;50.12;97729.81;4844719;29;20132;-82
2021/01/26 02:24:15;;;;;;;2.55;1.50;;;;;;;9.89;50.12;97742.09;4844750;29;20109;-83
2021/01/26 02:28:03;;;;;;;2.42;1.40;;;;;;;9.89;50.39;97738.66;4843251;29;20042;-82
2021/01/26 02:41:17;;;;;;;3.00;1.25;;;;;;;9.83;50.46;97705.91;4871805;29;20062;-90
2021/01/26 02:44:38;;;;;;;2.47;1.67;;;;;;;9.82;50.08;97695.56;4832130;29;20050;-91
2021/01/26 02:50:28;;;;;;;2.03;0.98;;;;;;;9.78;50.25;97711.38;4908826;24;20041;-90
2021/01/26 02:53:13;;;;;;;3.55;1.35;;;;;;;9.69;50.19;97710.53;4872733;29;20054;-90
2021/01/26 02:56:07;;;;;;;3.53;1.25;;;;;;;9.70;50.39;97704.88;4885577;29;20057;-86
2021/01/26 03:06:32;;;;;;;3.90;1.30;;;;;;;9.68;50.53;97696.41;4801010;29;20118;-86
2021/01/26 03:16:10;;;;;;;3.13;1.73;;;;;;;9.57;50.86;97695.84;4822717;29;20056;-89
2021/01/26 03:19:58;;;;;;;3.47;1.25;;;;;;;9.55;50.83;97694.56;4803007;29;20030;-88
2021/01/26 03:22:38;;;;;;;4.63;1.10;;;;;;;9.53;51.07;97691.41;4813238;29;20523;-88
2021/01/26 03:25:14;;;;;;;2.95;1.23;;;;;;;9.53;50.92;97710.91;4812866;29;20516;-78
2021/01/26 03:27:46;;;;;;;1.38;1.20;;;;;;;9.54;51.12;97715.13;4820317;29;20041;-84
2021/01/26 03:30:50;;;;;;;3.40;2.00;;;;;;;9.52;51.25;97714.66;4840110;29;20042;-83
2021/01/26 03:40:10;;;;;;;1.25;0.85;;;;;;;9.44;51.93;97710.78;4820715;29;20526;-81
2021/01/26 03:50:04;;;;;;;3.65;1.42;;;;;;;9.31;52.43;97706.28;4864530;29;20059;-88
2021/01/26 04:12:22;;;;;;;2.63;0.93;;;;;;;9.17;53.05;97713.53;4976589;23;20040;-87
2021/01/26 04:14:59;;;;;;;4.50;1.42;;;;;;;9.21;53.15;97722.53;4867140;29;20061;-86
2021/01/26 04:17:51;;;;;;;2.30;1.35;;;;;;;9.26;53.48;97733.09;4867472;29;20037;-90
2021/01/26 04:20:39;;;;;;;1.45;1.30;;;;;;;9.23;53.55;97734.47;4870208;29;20030;-92
2021/01/26 04:23:05;;;;;;;1.98;1.23;;;;;;;9.27;53.33;97748.78;4854812;29;20018;-95
2021/01/26 04:25:40;;;;;;;2.78;1.48;;;;;;;9.25;53.78;97728.84;5142570;24;20447;-91
2021/01/26 04:28:15;;;;;;;6.30;1.77;;;;;;;9.26;53.95;97728.56;5042288;23;20044;-93
2021/01/26 04:30:41;;;;;;;3.92;1.60;;;;;;;9.22;53.86;97722.22;4887639;29;20048;-92
2021/01/26 04:33:14;;;;;;;5.32;1.75;;;;;;;9.23;53.79;97733.69;4886072;29;20029;-88
2021/01/26 04:35:42;;;;;;;4.85;2.25;;;;;;;9.23;54.27;97733.69;4854716;29;20036;-90
2021/01/26 04:38:10;;;;;;;3.38;1.65;;;;;;;9.26;54.20;97746.41;4863902;29;20037;-87
2021/01/26 04:40:58;;;;;;;;;;;;;;;9.25;54.17;97756.31;4875653;29;20499;-90
2021/01/26 04:43:47;;;;;;;;;;;;;;;9.25;54.06;97760.84;5292363;23;20337;-94
2021/01/26 04:53:22;;;;;;;3.28;1.52;;;;;;;9.19;54.37;97765.50;4903402;29;20085;-91
2021/01/26 04:56:27;;;;;;;2.80;1.58;;;;;;;9.17;54.79;97762.34;4903860;29;20073;-90
2021/01/26 04:59:31;;;;;;;2.85;1.65;;;;;;;9.17;54.65;97753.53;4888258;29;20148;-92
2021/01/26 05:02:07;;;;;;;4.90;1.65;;;;;;;9.16;54.73;97750.09;4903366;29;20040;-92
2021/01/26 05:05:20;;;;;;;2.28;1.67;;;;;;;9.11;54.82;97766.97;4898438;29;20061;-91
2021/01/26 05:08:31;;;;;;;2.75;1.52;;;;;;;9.11;54.61;97761.66;4883341;29;20025;-91
2021/01/26 05:13:48;;;;;;;6.88;2.78;;;;;;;9.18;54.42;97766.59;5858276;23;20012;-84
2021/01/26 05:16:56;;;;;;;9.43;2.50;;;;;;;9.15;54.54;97750.41;4884358;29;20036;-86
2021/01/26 05:27:53;;;;;;;5.30;1.80;;;;;;;9.21;53.97;97778.53;4859718;29;20110;-87
2021/01/26 05:37:40;;;;;;;5.70;1.67;;;;;;;9.23;53.45;97785.16;4802906;29;20062;-82
2021/01/26 05:41:26;;;;;;;3.38;1.55;;;;;;;9.24;53.14;97775.25;4797888;29;20113;-87
2021/01/26 05:43:55;;;;;;;10.85;3.10;;;;;;;9.27;52.96;97774.69;4787692;30;20039;-84
2021/01/26 05:46:40;;;;;;;8.48;3.42;;;;;;;9.28;52.46;97768.25;4782019;30;20401;-80
2021/01/26 05:49:06;;;;;;;8.90;4.85;;;;;;;9.29;52.86;97764.50;4807552;29;20079;-80
2021/01/26 05:51:34;;;;;;;8.25;3.95;;;;;;;9.28;52.90;97766.38;4807327;29;20030;-80
2021/01/26 05:54:04;;;;;;;7.32;3.75;;;;;;;9.30;53.05;97774.06;4807711;29;20033;-80
2021/01/26 05:56:30;;;;;;;7.00;3.10;;;;;;;9.31;53.16;97774.88;4825306;29;20041;-80
2021/01/26 05:58:56;;;;;;;5.90;2.85;;;;;;;9.32;52.38;97773.78;4825102;29;20037;-80
2021/01/26 06:01:32;;;;;;;6.32;2.78;;;;;;;9.34;52.55;97766.25;4825050;29;20124;-80
2021/01/26 06:04:17;;;;;;;5.32;3.35;;;;;;;9.35;51.87;97762.50;4856766;29;20148;-80
2021/01/26 06:07:00;;;;;;;8.50;3.70;;;;;;;9.39;51.90;97763.50;4859886;29;20443;-81
2021/01/26 06:09:47;;;;;;;10.32;4.15;;;;;;;9.42;52.28;97768.22;4844209;29;20032;-80
2021/01/26 06:12:17;;;;;;;6.28;3.45;;;;;;;9.44;52.20;97763.38;4859466;29;20029;-81
2021/01/26 06:14:46;;;;;;;5.43;3.13;;;;;;;9.47;52.16;97762.78;4844084;29;20049;-80
2021/01/26 06:17:24;;;;;;;9.98;3.83;;;;;;;9.49;52.57;97759.84;4844052;29;20112;-80
2021/01/26 06:20:20;;;;;;;7.78;4.45;;;;;;;9.51;52.50;97750.44;4859579;29;20093;-80
2021/01/26 06:22:47;;;;;;;9.77;5.13;;;;;;;9.53;52.68;97750.13;4870850;29;20124;-80
2021/01/26 06:25:33;;;;;;;14.02;5.97;;;;;;;9.55;52.58;97747.94;4844158;29;20029;-80
2021/01/26 06:28:44;;;;;;;18.42;7.00;;;;;;;9.59;52.80;97756.94;4844121;29;20037;-80
2021/01/26 06:31:47;;;;;;;14.98;5.47;;;;;;;9.61;52.57;97752.09;4844158;29;20420;-80
2021/01/26 06:34:37;;;;;;;30.13;8.65;;;;;;;9.63;52.72;97760.59;4843805;29;20029;-80
2021/01/26 06:37:29;;;;;;;26.70;8.75;;;;;;;9.63;52.87;97765.13;4844038;29;20109;-80
2021/01/26 06:40:17;;;;;;;20.10;8.32;;;;;;;9.65;53.18;97762.94;4859295;29;20688;-81
2021/01/26 06:43:05;;;;;;;16.70;8.10;;;;;;;9.66;53.18;97762.63;4840158;29;20060;-81
2021/01/26 06:45:47;;;;;;;15.13;7.97;;;;;;;9.68;52.78;97749.78;4843683;29;20029;-81
2021/01/26 06:48:27;;;;;;;13.50;6.35;;;;;;;9.69;53.27;97754.03;4843102;29;20025;-79
2021/01/26 06:51:20;;;;;;;11.02;5.65;;;;;;;9.73;52.85;97755.00;4859131;29;20033;-80
2021/01/26 06:54:16;;;;;;;10.93;5.18;;;;;;;9.73;52.60;97747.00;4859176;29;20394;-80
2021/01/26 06:57:33;;;;;;;14.88;4.97;;;;;;;9.78;52.50;97754.88;4843772;29;20029;-81
2021/01/26 07:00:36;;;;;;;12.10;6.10;;;;;;;9.83;52.41;97756.66;4842779;29;20064;-80
2021/01/26 07:03:19;;;;;;;14.15;6.35;;;;;;;9.85;52.29;97759.00;4843409;29;20034;-81
2021/01/26 07:06:04;;;;;;;19.77;9.13;;;;;;;9.92;52.37;97768.19;4859345;29;20022;-80
2021/01/26 07:08:50;;;;;;;17.40;8.32;;;;;;;9.97;52.58;97769.94;4843704;29;20038;-80
2021/01/26 07:11:54;;;;;;;13.75;5.57;;;;;;;10.01;51.94;97768.25;4858780;29;20029;-80
2021/01/26 07:14:47;;;;;;;10.52;5.13;;;;;;;10.05;52.19;97766.56;4843309;29;20049;-80
2021/01/26 07:17:24;;;;;;;14.00;5.53;;;;;;;10.10;52.63;97762.97;4859030;29;20033;-80
2021/01/26 07:20:15;;;;;;;14.75;5.88;;;;;;;10.16;52.41;97771.66;4843827;29;20468;-80
2021/01/26 07:22:52;;;;;;;9.00;6.65;;;;;;;10.20;52.37;97765.38;4843604;29;20025;-81
2021/01/26 07:25:39;;;;;;;13.55;4.45;;;;;;;10.23;52.48;97764.00;4858937;29;20029;-80
2021/01/26 07:28:42;;;;;;;11.18;4.60;;;;;;;10.30;52.31;97759.03;4859081;29;20037;-80
2021/01/26 07:31:14;;;;;;;13.80;5.45;;;;;;;10.33;52.79;97750.38;4858964;29;20467;-80
2021/01/26 07:33:46;;;;;;;11.77;5.18;;;;;;;10.35;52.31;97744.72;4860529;29;20429;-80
2021/01/26 07:36:25;;;;;;;15.95;5.70;;;;;;;10.36;52.57;97751.66;4858945;29;20147;-79
2021/01/26 07:39:10;;;;;;;9.05;4.53;;;;;;;10.36;53.22;97747.16;4843665;29;20030;-82
2021/01/26 07:41:40;;;;;;;7.75;4.38;;;;;;;10.39;52.83;97745.75;4842893;29;20037;-80
2021/01/26 07:44:23;;;;;;;11.10;5.25;;;;;;;10.43;53.88;97757.38;4843363;29;20488;-79
2021/01/26 07:46:58;;;;;;;6.82;4.25;;;;;;;10.46;54.11;97747.97;4858602;29;20528;-80
2021/01/26 07:49:33;;;;;;;6.80;3.83;;;;;;;10.50;53.25;97748.94;4858215;29;20490;-79
2021/01/26 07:52:02;;;;;;;6.63;3.38;;;;;;;10.54;53.38;97750.66;4843275;29;20492;-80
2021/01/26 07:54:34;;;;;;;6.47;2.67;;;;;;;10.61;52.90;97752.13;4842947;29;20029;-79
2021/01/26 07:57:03;;;;;;;5.30;2.45;;;;;;;10.66;53.09;97743.97;4858433;29;20051;-79
2021/01/26 07:59:32;;;;;;;5.38;2.75;;;;;;;10.69;53.24;97738.00;4842032;29;20090;-80
2021/01/26 08:02:00;;;;;;;10.77;4.72;;;;;;;10.74;53.23;97737.84;4843171;29;20124;-79
2021/01/26 08:04:37;;;;;;;7.05;2.67;;;;;;;10.78;53.07;97728.13;4842867;29;20395;-80
2021/01/26 08:07:04;;;;;;;11.27;4.18;;;;;;;10.79;52.85;97724.38;4859613;29;20044;-80
2021/01/26 08:09:32;;;;;;;10.27;3.63;;;;;;;10.84;52.96;97726.09;4858082;29;20122;-79
2021/01/26 08:12:02;;;;;;;4.70;2.28;;;;;;;10.83;52.77;97719.97;4842971;29;20049;-79
2021/01/26 08:14:38;;;;;;;7.25;2.90;;;;;;;10.85;52.90;97720.44;4842513;29;20464;-79
2021/01/26 08:17:09;;;;;;;7.00;3.00;;;;;;;10.86;53.00;97722.03;4842823;29;20025;-79
2021/01/26 08:19:43;;;;;;;9.93;2.95;;;;;;;10.89;52.68;97729.44;4858001;29;20125;-79
2021/01/26 08:22:31;;;;;;;7.70;3.42;;;;;;;10.93;53.01;97718.91;4858072;29;20073;-79
2021/01/26 08:25:27;;;;;;;4.60;2.80;;;;;;;10.97;52.76;97716.38;4842847;29;20025;-79
2021/01/26 08:27:54;;;;;;;7.25;3.78;;;;;;;10.98;52.81;97712.63;4842872;29;20021;-80
2021/01/26 08:30:30;;;;;;;8.32;4.05;;;;;;;10.99;53.17;97708.84;4857699;29;20036;-79
2021/01/26 08:33:14;;;;;;;8.35;4.53;;;;;;;11.02;53.26;97702.84;4858077;29;20081;-79
2021/01/26 08:35:44;;;;;;;6.13;3.63;;;;;;;11.03;53.25;97699.09;4842343;29;20036;-79
2021/01/26 08:38:30;;;;;;;6.47;3.10;;;;;;;11.04;53.41;97695.31;4857886;29;20033;-79
2021/01/26 08:40:58;;;;;;;8.32;2.40;;;;;;;11.08;53.37;97684.78;4842395;29;20428;-79
2021/01/26 08:43:43;;;;;;;4.53;2.22;;;;;;;11.11;53.31;97687.63;4859223;29;20041;-79
2021/01/26 08:46:09;;;;;;;6.40;2.65;;;;;;;11.13;53.58;97680.09;4842465;29;20068;-79
2021/01/26 08:48:36;;;;;;;2.97;2.03;;;;;;;11.17;53.20;97664.97;4842193;29;20061;-79
2021/01/26 08:51:03;;;;;;;6.18;1.88;;;;;;;11.17;53.42;97670.31;4842317;29;20503;-79
2021/01/26 08:53:28;;;;;;;3.80;1.93;;;;;;;11.21;53.51;97657.88;4857456;29;20025;-79
2021/01/26 08:55:57;;;;;;;4.85;1.83;;;;;;;11.23;53.43;97646.88;4859224;29;20269;-78
2021/01/26 08:58:48;;;;;;;4.60;2.30;;;;;;;11.28;52.96;97646.72;4857497;29;20060;-79
2021/01/26 09:01:23;;;;;;;9.73;2.40;;;;;;;11.30;53.12;97651.75;4857622;29;20097;-79
2021/01/26 09:03:52;;;;;;;6.80;2.58;;;;;;;11.32;53.11;97665.59;4842186;29;20030;-79
2021/01/26 09:06:42;;;;;;;4.05;1.85;;;;;;;11.36;52.85;97661.19;4859150;29;20040;-79
2021/01/26 09:09:31;;;;;;;7.03;2.50;;;;;;;11.40;53.03;97650.63;4842117;29;20034;-81
2021/01/26 09:12:00;;;;;;;;;;;;;;;11.43;52.43;97655.38;4857718;29;20026;-81
2021/01/26 09:15:01;;;;;;;8.40;3.20;;;;;;;11.46;53.39;97657.41;4857091;29;20289;-80
2021/01/26 09:17:35;;;;;;;8.32;2.65;;;;;;;11.49;53.21;97652.22;4837046;29;20117;-80
2021/01/26 09:20:20;;;;;;;7.97;3.28;;;;;;;11.53;53.23;97642.47;4857329;29;20037;-80
2021/01/26 09:22:46;;;;;;;8.00;2.88;;;;;;;11.58;53.14;97636.13;4857429;29;20162;-78
2021/01/26 09:25:22;;;;;;;4.80;2.45;;;;;;;11.63;52.92;97636.00;4841780;29;20055;-79
2021/01/26 09:27:59;;;;;;;11.07;3.50;;;;;;;11.68;52.57;97618.94;4841942;29;20070;-78
2021/01/26 09:30:26;;;;;;;4.75;2.60;;;;;;;11.71;52.39;97609.53;4857081;29;20033;-78
2021/01/26 09:32:55;;;;;;;4.70;2.20;;;;;;;11.79;52.52;97606.81;4841911;29;20387;-80
2021/01/26 09:35:20;;;;;;;6.05;3.38;;;;;;;11.85;52.29;97591.34;4842005;29;20066;-80
2021/01/26 09:37:47;;;;;;;8.18;3.30;;;;;;;11.91;52.39;97590.06;4841810;29;20030;-80
2021/01/26 09:40:13;;;;;;;7.72;3.20;;;;;;;11.98;51.84;97595.75;4857281;29;20136;-80
2021/01/26 09:42:39;;;;;;;9.52;3.55;;;;;;;12.06;51.99;97599.50;4857088;29;20032;-80
2021/01/26 09:45:09;;;;;;;8.02;2.85;;;;;;;12.13;52.32;97591.75;4841851;29;20025;-77
2021/01/26 09:47:36;;;;;;;5.03;2.85;;;;;;;12.20;51.93;97558.31;4854312;29;20034;-79
2021/01/26 09:50:09;;;;;;;4.40;2.30;;;;;;;12.26;51.67;97581.16;4858386;29;20032;-78
2021/01/26 09:52:36;;;;;;;7.60;2.58;;;;;;;12.32;51.55;97587.88;4841513;29;20025;-79
2021/01/26 09:55:05;;;;;;;5.35;2.33;;;;;;;12.38;51.35;97589.28;4841825;29;20026;-79
2021/01/26 09:57:31;;;;;;;5.18;2.58;;;;;;;12.44;51.71;97590.66;4841489;29;20121;-79
2021/01/26 09:59:57;;;;;;;3.72;2.03;;;;;;;12.49;50.91;97560.19;4841705;29;20159;-78
2021/01/26 10:02:25;;;;;;;5.03;2.47;;;;;;;12.56;51.02;97575.75;4858213;29;20035;-79
2021/01/26 10:04:51;;;;;;;3.85;2.35;;;;;;;12.61;51.02;97580.97;4856990;29;20038;-79
2021/01/26 10:07:18;;;;;;;4.47;2.25;;;;;;;12.66;50.59;97583.44;4841769;29;20040;-79
2021/01/26 10:09:44;;;;;;;4.15;2.22;;;;;;;12.72;49.84;97570.59;4856727;29;20038;-79
2021/01/26 10:12:22;;;;;;;3.97;2.33;;;;;;;12.78;49.97;97563.94;4841716;29;20029;-78
2021/01/26 10:15:09;;;;;;;7.35;2.67;;;;;;;12.86;49.40;97567.69;4841219;29;20441;-79
2021/01/26 10:17:47;;;;;;;8.23;3.05;;;;;;;12.89;49.44;97553.59;4841029;29;20030;-78
2021/01/26 10:20:20;;;;;;;6.38;2.67;;;;;;;12.96;49.42;97562.72;4841603;29;20112;-78
2021/01/26 10:22:46;;;;;;;8.32;2.75;;;;;;;13.01;49.65;97569.78;4866447;29;20475;-78
2021/01/26 10:25:12;;;;;;;7.18;2.75;;;;;;;13.06;49.02;97560.72;4860251;29;20032;-78
2021/01/26 10:27:38;;;;;;;7.38;2.90;;;;;;;13.10;48.51;97567.81;4859942;29;20169;-78
2021/01/26 10:30:15;;;;;;;11.00;5.25;;;;;;;13.16;48.39;97565.72;4861474;29;20069;-78
2021/01/26 10:32:47;;;;;;;8.80;3.67;;;;;;;13.19;48.82;97562.34;4859790;29;20500;-78
2021/01/26 10:35:31;;;;;;;7.30;3.85;;;;;;;13.21;48.50;97564.72;4844596;29;20109;-80
2021/01/26 10:37:57;;;;;;;9.02;3.20;;;;;;;13.24;48.83;97569.44;4844696;29;20033;-80
2021/01/26 10:40:30;;;;;;;7.70;3.10;;;;;;;13.25;48.67;97568.31;4861276;29;20033;-78
2021/01/26 10:42:58;;;;;;;8.32;3.35;;;;;;;13.29;48.05;97561.16;4859977;29;20475;-78
2021/01/26 10:45:43;;;;;;;7.07;2.83;;;;;;;13.29;48.21;97567.34;4844598;29;20029;-79
2021/01/26 10:48:22;;;;;;;14.60;5.00;;;;;;;13.32;48.24;97563.19;4844477;29;20025;-79
2021/01/26 10:50:48;;;;;;;6.80;3.35;;;;;;;13.33;48.14;97563.97;4859560;29;20025;-79
2021/01/26 10:53:33;;;;;;;8.60;4.30;;;;;;;13.34;48.03;97562.88;4844031;29;20034;-79
2021/01/26 10:55:58;;;;;;;5.07;3.40;;;;;;;13.35;47.84;97562.53;4859599;29;20034;-80
2021/01/26 10:58:24;;;;;;;10.63;3.63;;;;;;;13.35;47.72;97573.25;4843898;29;20029;-80
2021/01/26 11:00:51;;;;;;;5.50;3.15;;;;;;;13.35;47.80;97562.53;4843810;29;20025;-80
2021/01/26 11:03:16;;;;;;;6.60;2.90;;;;;;;13.35;48.07;97553.69;4859445;29;20032;-80
2021/01/26 11:05:42;;;;;;;8.75;3.10;;;;;;;13.34;47.67;97555.59;4843986;29;20025;-80
2021/01/26 11:08:07;;;;;;;8.13;3.22;;;;;;;13.37;47.44;97557.63;4859385;29;20476;-79
2021/01/26 11:10:35;;;;;;;5.05;3.15;;;;;;;13.38;47.49;97555.75;4860533;29;20026;-80
2021/01/26 11:13:00;;;;;;;4.75;2.38;;;;;;;13.39;47.55;97549.25;4843939;29;20026;-79
2021/01/26 11:15:27;;;;;;;8.55;2.33;;;;;;;13.39;47.17;97546.56;4843855;29;20097;-78
2021/01/26 11:17:52;;;;;;;6.07;2.03;;;;;;;13.41;47.30;97555.09;4855463;29;20632;-79
2021/01/26 11:20:19;;;;;;;8.68;3.38;;;;;;;13.43;47.40;97540.22;4843964;29;20067;-79
2021/01/26 11:22:44;;;;;;;5.05;3.15;;;;;;;13.44;47.25;97541.00;4843382;29;20025;-79
2021/01/26 11:25:10;;;;;;;8.50;2.83;;;;;;;13.47;47.37;97548.38;4843776;29;20399;-78
2021/01/26 11:27:36;;;;;;;7.32;2.78;;;;;;;13.48;47.04;97543.81;4871954;29;20082;-79
2021/01/26 11:30:04;;;;;;;8.68;2.85;;;;;;;13.49;47.16;97532.75;4843565;29;20085;-79
2021/01/26 11:32:29;;;;;;;5.72;2.85;;;;;;;13.52;46.85;97533.97;4858746;29;20402;-78
2021/01/26 11:34:55;;;;;;;5.13;2.28;;;;;;;13.53;46.44;97540.91;4843569;29;20129;-78
2021/01/26 11:37:20;;;;;;;6.40;3.38;;;;;;;13.54;46.58;97543.25;4843684;29;20085;-78
2021/01/26 11:39:45;;;;;;;10.90;3.33;;;;;;;13.55;46.90;97560.94;4843378;29;20033;-79
2021/01/26 11:42:11;;;;;;;8.27;5.50;;;;;;;13.52;46.82;97574.25;4859908;29;20448;-78
2021/01/26 11:44:37;;;;;;;8.88;6.75;;;;;;;13.28;46.91;97586.44;4858530;29;20029;-78
2021/01/26 11:47:04;;;;;;;11.38;7.28;;;;;;;13.07;47.43;97584.59;4854074;29;20090;-78
2021/01/26 11:49:30;;;;;;;11.98;6.75;;;;;;;12.74;48.39;97587.97;4843150;29;20120;-78
2021/01/26 11:51:55;;;;;;;15.80;8.63;;;;;;;12.46;48.50;97593.81;4843314;29;20474;-78
2021/01/26 11:54:21;;;;;;;11.85;8.38;;;;;;;12.17;49.11;97589.22;4843270;29;20033;-78
2021/01/26 11:56:46;;;;;;;14.02;9.40;;;;;;;11.92;49.36;97597.00;4842951;29;20021;-78
2021/01/26 11:59:12;;;;;;;15.88;10.27;;;;;;;11.73;49.69;97601.94;4842915;29;20033;-78
2021/01/26 12:01:37;;;;;;;15.98;9.93;;;;;;;11.50;50.21;97607.50;4849561;29;20021;-78
2021/01/26 12:04:04;;;;;;;16.90;10.25;;;;;;;11.32;50.81;97612.06;4842686;29;20040;-78
2021/01/26 12:06:29;;;;;;;18.48;9.93;;;;;;;11.15;51.04;97610.19;4842636;29;20025;-78
2021/01/26 12:08:54;;;;;;;14.35;8.52;;;;;;;10.95;51.26;97614.25;4847398;29;20036;-78
2021/01/26 12:11:20;;;;;;;14.30;9.55;;;;;;;10.78;51.50;97610.47;4842558;29;20021;-78
2021/01/26 12:13:45;;;;;;;13.10;8.95;;;;;;;10.58;51.71;97609.16;4841912;29;20706;-80
2021/01/26 12:16:11;;;;;;;12.25;8.05;;;;;;;10.40;52.59;97627.84;4842325;29;20615;-80
2021/01/26 12:18:36;;;;;;;14.45;9.85;;;;;;;10.25;53.45;97625.53;4842083;29;20444;-80
2021/01/26 12:21:02;;;;;;;18.25;8.50;;;;;;;10.14;54.19;97630.38;4842493;29;20089;-80
2021/01/26 12:23:27;;;;;;;12.07;7.78;;;;;;;10.01;55.36;97620.56;4857600;29;20029;-80
2021/01/26 12:25:57;;;;;;;14.50;7.32;;;;;;;9.89;55.99;97621.94;4841898;29;20479;-79
2021/01/26 12:28:23;;;;;;;15.73;7.88;;;;;;;9.77;57.00;97632.38;4853092;29;20040;-79
2021/01/26 12:30:48;;;;;;;13.32;7.78;;;;;;;9.65;58.03;97632.16;4843376;29;20567;-80
2021/01/26 12:33:14;;;;;;;16.92;8.68;;;;;;;9.53;58.58;97633.50;4842508;29;20113;-79
2021/01/26 12:35:39;;;;;;;14.98;7.07;;;;;;;9.44;59.18;97648.66;4851159;29;20025;-80
2021/01/26 12:38:07;;;;;;;14.57;7.47;;;;;;;9.35;59.15;97659.25;4842451;29;20061;-79
2021/01/26 12:40:32;;;;;;;15.73;6.68;;;;;;;9.30;59.75;97656.69;4857790;29;20029;-79
2021/01/26 12:42:57;;;;;;;14.68;8.30;;;;;;;9.26;60.43;97669.06;4865445;29;20089;-80
2021/01/26 12:45:27;;;;;;;8.77;5.93;;;;;;;9.21;59.76;97674.50;4841658;29;20048;-80
2021/01/26 12:47:52;;;;;;;16.83;8.13;;;;;;;9.16;60.49;97662.06;4841908;29;20034;-79
2021/01/26 12:50:23;;;;;;;16.58;7.82;;;;;;;9.10;61.06;97671.28;4841894;29;20026;-80
2021/01/26 12:52:48;;;;;;;8.25;6.40;;;;;;;9.04;61.59;97669.81;4842130;29;20718;-80
2021/01/26 12:55:14;;;;;;;9.77;6.30;;;;;;;8.96;61.75;97663.31;4841914;29;20033;-80
2021/01/26 12:57:39;;;;;;;11.15;6.60;;;;;;;8.91;61.96;97666.06;4841628;29;20025;-80
2021/01/26 13:00:10;;;;;;;10.70;5.75;;;;;;;8.83;63.03;97656.13;4842149;29;20025;-79
2021/01/26 13:02:36;;;;;;;11.57;6.07;;;;;;;8.78;63.42;97663.13;4842090;29;20025;-79
2021/01/26 13:05:02;;;;;;;12.70;7.32;;;;;;;8.70;64.28;97679.81;4857768;29;20035;-79
2021/01/26 13:07:28;;;;;;;9.95;6.75;;;;;;;8.70;65.10;97684.34;4857792;29;20037;-80
2021/01/26 13:09:53;;;;;;;14.40;6.47;;;;;;;8.64;64.71;97692.47;4842071;29;20060;-79
2021/01/26 13:12:19;;;;;;;14.32;6.15;;;;;;;8.60;64.95;97688.00;4842371;29;20132;-80
2021/01/26 13:14:44;;;;;;;8.15;5.47;;;;;;;8.58;64.88;97685.66;4841779;29;20037;-80
2021/01/26 13:17:10;;;;;;;10.40;5.60;;;;;;;8.48;65.18;97678.63;4857591;29;20032;-80
2021/01/26 13:19:36;;;;;;;10.65;6.10;;;;;;;8.40;65.50;97684.63;4842007;29;20032;-80
2021/01/26 13:22:03;;;;;;;10.95;5.30;;;;;;;8.34;65.78;97704.44;4857571;29;20017;-79
2021/01/26 13:24:29;;;;;;;6.22;4.85;;;;;;;8.28;65.94;97714.38;4857572;29;20041;-79
2021/01/26 13:26:55;;;;;;;13.82;7.18;;;;;;;8.24;66.08;97708.09;4841951;29;20403;-80
2021/01/26 13:29:20;;;;;;;20.65;8.55;;;;;;;8.20;66.34;97707.06;4842121;29;20036;-80
2021/01/26 13:31:45;;;;;;;23.13;9.88;;;;;;;8.16;66.63;97704.19;4858779;29;20523;-79
2021/01/26 13:34:11;;;;;;;20.88;8.27;;;;;;;8.09;67.06;97711.81;4842212;29;20487;-79
2021/01/26 13:36:36;;;;;;;20.67;9.43;;;;;;;8.06;66.62;97709.72;4841963;29;20028;-80
2021/01/26 13:39:03;;;;;;;15.80;7.82;;;;;;;8.00;67.03;97701.00;4842184;29;20029;-79
2021/01/26 13:41:28;;;;;;;19.38;8.75;;;;;;;7.99;66.88;97710.06;4842315;29;20021;-80
2021/01/26 13:43:53;;;;;;;15.75;8.18;;;;;;;7.99;66.67;97714.63;4854048;29;20578;-80
2021/01/26 13:46:19;;;;;;;10.73;6.20;;;;;;;7.93;67.47;97710.47;4842412;29;20022;-79
2021/01/26 13:48:44;;;;;;;13.23;7.18;;;;;;;7.87;67.68;97699.09;4842279;29;20117;-80
2021/01/26 13:51:10;;;;;;;13.73;7.85;;;;;;;7.87;68.15;97701.75;4842137;29;20025;-79
2021/01/26 13:53:36;;;;;;;11.43;6.70;;;;;;;7.85;67.98;97702.06;4842254;29;20085;-79
2021/01/26 13:56:01;;;;;;;10.00;5.93;;;;;;;7.82;68.66;97707.97;4859432;29;20034;-78
2021/01/26 13:58:27;;;;;;;7.82;5.53;;;;;;;7.79;68.73;97707.75;4861416;29;20030;-78
2021/01/26 14:00:52;;;;;;;15.55;7.65;;;;;;;7.75;69.07;97709.41;4845316;29;20475;-78
2021/01/26 14:03:18;;;;;;;20.30;10.57;;;;;;;7.70;69.22;97699.63;4845502;29;20535;-79